createdAt,value
2023-05-12T00:01:38.444Z,31.38
2023-05-12T00:04:05.709Z,28.73
2023-05-12T00:06:32.872Z,30.70
2023-05-12T00:08:59.914Z,24.58
2023-05-12T00:11:27.098Z,22.77
2023-05-12T00:13:55.430Z,22.45
2023-05-12T00:16:22.488Z,22.58
2023-05-12T00:18:49.544Z,21.58
2023-05-12T00:21:16.697Z,21.02
2023-05-12T00:23:43.782Z,20.40
2023-05-12T00:26:10.886Z,23.00
2023-05-12T00:28:38.270Z,18.17
2023-05-12T00:31:05.695Z,17.98
2023-05-12T00:33:32.916Z,20.50
2023-05-12T00:36:04.179Z,15.45
2023-05-12T00:38:31.279Z,15.90
2023-05-12T00:40:58.356Z,16.48
2023-05-12T00:43:25.574Z,13.68
2023-05-12T00:45:53.066Z,12.32
2023-05-12T00:48:20.277Z,14.48
2023-05-12T00:50:47.313Z,17.95
2023-05-12T00:53:14.697Z,12.35
2023-05-12T00:55:42.425Z,14.88
2023-05-12T00:58:09.545Z,15.60
2023-05-12T01:00:36.859Z,16.08
2023-05-12T01:03:04.964Z,12.60
2023-05-12T01:06:10.228Z,14.48
2023-05-12T01:08:38.881Z,14.45
2023-05-12T01:11:06.676Z,17.55
2023-05-12T01:13:33.895Z,14.43
2023-05-12T01:16:03.256Z,19.02
2023-05-12T01:18:34.997Z,14.10
2023-05-12T01:21:03.212Z,13.25
2023-05-12T01:23:36.547Z,12.70
2023-05-12T01:26:08.025Z,14.25
2023-05-12T01:28:37.876Z,14.25
2023-05-12T01:31:07.382Z,13.98
2023-05-12T01:33:36.774Z,13.20
2023-05-12T01:36:04.430Z,14.05
2023-05-12T01:38:31.595Z,13.65
2023-05-12T01:40:58.708Z,12.85
2023-05-12T01:43:25.779Z,11.23
2023-05-12T01:45:52.795Z,12.13
2023-05-12T01:48:20.031Z,14.98
2023-05-12T01:50:47.101Z,14.50
2023-05-12T01:53:19.798Z,15.10
2023-05-12T01:55:46.827Z,13.45
2023-05-12T01:58:13.895Z,13.10
2023-05-12T02:00:41.130Z,14.95
2023-05-12T02:03:14.377Z,13.27
2023-05-12T02:05:41.438Z,15.88
2023-05-12T02:08:08.499Z,12.10
2023-05-12T02:10:35.967Z,14.73
2023-05-12T02:13:03.781Z,13.77
2023-05-12T02:15:33.441Z,14.15
2023-05-12T02:18:01.085Z,13.13
2023-05-12T02:20:29.777Z,14.57
2023-05-12T02:22:57.101Z,15.50
2023-05-12T02:25:24.232Z,13.10
2023-05-12T02:27:51.366Z,14.65
2023-05-12T02:30:18.929Z,14.52
2023-05-12T02:32:46.595Z,13.90
2023-05-12T02:35:13.899Z,15.13
2023-05-12T02:37:40.999Z,14.85
2023-05-12T02:40:08.974Z,17.05
2023-05-12T02:42:38.543Z,15.50
2023-05-12T02:45:06.425Z,18.00
2023-05-12T02:47:36.492Z,16.85
2023-05-12T02:50:04.024Z,15.40
2023-05-12T02:52:32.348Z,16.25
2023-05-12T02:54:59.450Z,18.20
2023-05-12T02:57:32.114Z,17.42
2023-05-12T02:59:59.208Z,17.05
2023-05-12T03:02:26.453Z,14.65
2023-05-12T03:04:53.680Z,16.13
2023-05-12T03:07:21.678Z,14.98
2023-05-12T03:09:48.782Z,17.98
2023-05-12T03:12:16.055Z,19.48
2023-05-12T03:14:43.158Z,17.08
2023-05-12T03:17:10.305Z,16.50
2023-05-12T03:19:37.527Z,16.50
2023-05-12T03:22:07.371Z,14.35
2023-05-12T03:24:36.752Z,19.50
2023-05-12T03:27:05.176Z,17.83
2023-05-12T03:29:32.268Z,22.00
2023-05-12T03:31:59.262Z,20.10
2023-05-12T03:34:26.684Z,17.17
2023-05-12T03:36:57.452Z,14.07
2023-05-12T03:39:25.256Z,16.77
2023-05-12T03:41:52.799Z,14.80
2023-05-12T03:44:19.817Z,11.43
2023-05-12T03:46:46.953Z,12.73
2023-05-12T03:49:14.237Z,8.27
2023-05-12T03:51:41.590Z,10.35
2023-05-12T03:54:09.092Z,11.63
2023-05-12T03:56:36.473Z,10.63
2023-05-12T03:59:04.183Z,12.75
2023-05-12T04:01:31.277Z,8.20
2023-05-12T04:03:58.364Z,8.20
2023-05-12T04:06:25.372Z,11.05
2023-05-12T04:08:52.373Z,7.78
2023-05-12T04:11:19.518Z,8.23
2023-05-12T04:13:46.550Z,9.10
2023-05-12T04:16:14.655Z,7.75
2023-05-12T04:18:41.772Z,8.05
2023-05-12T04:21:08.863Z,9.50
2023-05-12T04:23:35.931Z,13.60
2023-05-12T04:26:05.365Z,12.60
2023-05-12T04:28:32.493Z,8.95
2023-05-12T04:31:04.638Z,8.95
2023-05-12T04:33:32.410Z,10.02
2023-05-12T04:35:59.841Z,9.20
2023-05-12T04:38:27.552Z,8.70
2023-05-12T04:40:59.384Z,8.70
2023-05-12T04:45:59.813Z,7.78
2023-05-12T04:48:29.217Z,7.97
2023-05-12T04:51:00.173Z,8.30
2023-05-12T04:53:28.013Z,9.90
2023-05-12T04:55:56.765Z,7.93
2023-05-12T04:58:25.780Z,7.65
2023-05-12T05:00:53.345Z,8.50
2023-05-12T05:03:20.677Z,9.38
2023-05-12T05:05:49.186Z,8.07
2023-05-12T05:08:16.958Z,9.30
2023-05-12T05:10:44.091Z,10.68
2023-05-12T05:13:11.173Z,7.13
2023-05-12T05:15:38.468Z,7.25
2023-05-12T05:18:06.144Z,9.35
2023-05-12T05:20:34.658Z,8.73
2023-05-12T05:23:01.974Z,9.35
2023-05-12T05:25:29.062Z,7.90
2023-05-12T05:27:56.443Z,7.40
2023-05-12T05:30:23.532Z,10.82
2023-05-12T05:32:50.680Z,7.20
2023-05-12T05:35:18.902Z,8.60
2023-05-12T05:37:48.516Z,7.80
2023-05-12T05:40:15.712Z,6.97
2023-05-12T05:42:43.048Z,7.78
2023-05-12T05:45:11.278Z,7.95
2023-05-12T05:47:39.403Z,7.10
2023-05-12T05:50:08.096Z,5.88
2023-05-12T05:52:37.500Z,7.05
2023-05-12T05:55:05.054Z,7.20
2023-05-12T05:57:32.405Z,6.63
2023-05-12T06:00:00.396Z,7.50
2023-05-12T06:02:28.321Z,8.50
2023-05-12T06:04:55.585Z,6.75
2023-05-12T06:07:22.538Z,9.30
2023-05-12T06:09:49.675Z,9.27
2023-05-12T06:12:16.706Z,6.05
2023-05-12T06:14:43.715Z,7.68
2023-05-12T06:17:10.709Z,7.53
2023-05-12T06:19:38.064Z,7.85
2023-05-12T06:22:05.371Z,5.55
2023-05-12T06:24:32.362Z,6.97
2023-05-12T06:26:59.372Z,6.38
2023-05-12T06:29:26.397Z,6.68
2023-05-12T06:31:53.432Z,9.40
2023-05-12T06:34:20.532Z,6.68
2023-05-12T06:36:47.503Z,6.55
2023-05-12T06:39:14.601Z,6.25
2023-05-12T06:41:43.084Z,10.90
2023-05-12T06:44:20.085Z,6.10
2023-05-12T06:46:53.218Z,7.55
2023-05-12T06:49:21.878Z,10.45
2023-05-12T06:51:48.905Z,8.90
2023-05-12T06:54:16.000Z,5.55
2023-05-12T06:56:43.059Z,8.40
2023-05-12T06:59:10.077Z,6.65
2023-05-12T07:01:37.097Z,9.20
2023-05-12T07:04:04.610Z,6.40
2023-05-12T07:06:32.248Z,6.35
2023-05-12T07:08:59.341Z,5.72
2023-05-12T07:11:26.989Z,5.15
2023-05-12T07:13:54.016Z,7.70
2023-05-12T07:16:21.395Z,7.35
2023-05-12T07:18:48.489Z,10.00
2023-05-12T07:21:15.760Z,4.22
2023-05-12T07:23:43.002Z,7.07
2023-05-12T07:26:10.051Z,4.55
2023-05-12T07:28:37.236Z,3.70
2023-05-12T07:31:05.867Z,5.38
2023-05-12T07:33:33.529Z,7.00
2023-05-12T07:36:01.559Z,4.35
2023-05-12T07:38:29.220Z,4.13
2023-05-12T07:40:56.953Z,6.13
2023-05-12T07:43:23.989Z,12.40
2023-05-12T07:45:51.495Z,5.78
2023-05-12T07:48:18.990Z,7.28
2023-05-12T07:50:46.073Z,5.25
2023-05-12T07:53:13.172Z,5.47
2023-05-12T07:55:41.278Z,7.93
2023-05-12T07:58:08.288Z,6.53
2023-05-12T08:00:35.317Z,7.70
2023-05-12T08:03:02.536Z,6.82
2023-05-12T08:05:29.684Z,12.38
2023-05-12T08:07:56.666Z,6.13
2023-05-12T08:10:26.822Z,6.90
2023-05-12T08:12:53.818Z,6.82
2023-05-12T08:15:21.140Z,6.43
2023-05-12T08:17:48.643Z,5.88
2023-05-12T08:20:15.764Z,6.68
2023-05-12T08:22:42.809Z,7.18
2023-05-12T08:25:11.663Z,6.05
2023-05-12T08:27:39.615Z,8.27
2023-05-12T08:30:07.302Z,8.13
2023-05-12T08:32:34.695Z,6.30
2023-05-12T08:35:01.934Z,5.80
2023-05-12T08:37:34.516Z,4.63
2023-05-12T08:40:04.252Z,5.35
2023-05-12T08:42:41.538Z,7.88
2023-05-12T08:45:10.758Z,7.28
2023-05-12T08:47:39.041Z,6.25
2023-05-12T08:50:06.638Z,4.32
2023-05-12T08:52:36.596Z,4.32
2023-05-12T08:55:05.011Z,5.72
2023-05-12T08:57:33.788Z,4.57
2023-05-12T09:00:03.021Z,5.78
2023-05-12T09:02:51.977Z,6.35
2023-05-12T09:05:21.584Z,5.05
2023-05-12T09:07:50.476Z,4.75
2023-05-12T09:10:33.732Z,5.15
2023-05-12T09:13:16.599Z,6.80
2023-05-12T09:15:47.432Z,4.85
2023-05-12T09:18:14.621Z,5.28
2023-05-12T09:20:41.609Z,5.95
2023-05-12T09:23:19.891Z,5.55
2023-05-12T09:25:47.276Z,4.30
2023-05-12T09:28:14.857Z,7.80
2023-05-12T09:30:42.759Z,6.00
2023-05-12T09:33:14.021Z,8.10
2023-05-12T09:35:46.049Z,5.97
2023-05-12T09:38:14.763Z,5.05
2023-05-12T09:40:43.405Z,4.63
2023-05-12T09:43:13.613Z,3.72
2023-05-12T09:45:44.201Z,5.78
2023-05-12T09:48:12.829Z,6.35
2023-05-12T09:50:53.010Z,8.05
2023-05-12T09:53:23.036Z,8.73
2023-05-12T09:55:50.394Z,6.53
2023-05-12T09:58:19.642Z,7.30
2023-05-12T10:03:18.698Z,4.60
2023-05-12T10:05:53.030Z,4.53
2023-05-12T10:09:09.258Z,6.68
2023-05-12T10:11:37.057Z,5.28
2023-05-12T10:14:06.779Z,5.88
2023-05-12T10:16:34.128Z,4.70
2023-05-12T10:19:02.892Z,5.60
2023-05-12T10:21:30.788Z,4.45
2023-05-12T10:23:59.122Z,5.72
2023-05-12T10:26:27.496Z,5.38
2023-05-12T10:28:54.923Z,3.58
2023-05-12T10:31:23.073Z,8.80
2023-05-12T10:34:01.348Z,4.88
2023-05-12T10:36:29.242Z,7.00
2023-05-12T10:39:04.440Z,4.95
2023-05-12T10:41:33.152Z,5.97
2023-05-12T10:44:00.653Z,6.18
2023-05-12T10:46:28.209Z,5.47
2023-05-12T10:49:15.790Z,5.20
2023-05-12T10:51:42.696Z,6.00
2023-05-12T10:54:11.860Z,7.28
2023-05-12T10:56:39.709Z,8.98
2023-05-12T10:59:21.829Z,5.72
2023-05-12T11:02:01.885Z,7.93
2023-05-12T11:04:37.602Z,8.35
2023-05-12T11:07:07.730Z,8.70
2023-05-12T11:09:55.293Z,8.35
2023-05-12T11:12:32.702Z,8.27
2023-05-12T11:15:01.924Z,6.60
2023-05-12T11:17:33.890Z,7.45
2023-05-12T11:20:01.580Z,6.20
2023-05-12T11:22:33.379Z,9.07
2023-05-12T11:25:09.786Z,8.15
2023-05-12T11:27:42.443Z,6.43
2023-05-12T11:30:11.248Z,7.45
2023-05-12T11:32:38.831Z,5.38
2023-05-12T11:35:10.618Z,7.45
2023-05-12T11:37:39.745Z,6.43
2023-05-12T11:40:20.340Z,4.95
2023-05-12T11:42:53.053Z,4.00
2023-05-12T11:45:22.204Z,6.05
2023-05-12T11:47:49.638Z,6.25
2023-05-12T11:50:24.142Z,3.92
2023-05-12T11:52:52.658Z,4.60
2023-05-12T11:55:24.749Z,7.82
2023-05-12T11:58:03.226Z,4.13
2023-05-12T12:00:35.772Z,4.38
2023-05-12T12:03:14.169Z,5.47
2023-05-12T12:05:44.011Z,5.32
2023-05-12T12:08:14.897Z,4.05
2023-05-12T12:10:45.942Z,3.97
2023-05-12T12:13:19.749Z,3.90
2023-05-12T12:15:46.783Z,5.13
2023-05-12T12:18:13.901Z,10.85
2023-05-12T12:20:40.939Z,5.40
2023-05-12T12:23:07.921Z,10.18
2023-05-12T12:25:34.984Z,5.05
2023-05-12T12:28:02.736Z,5.05
2023-05-12T12:30:29.858Z,6.85
2023-05-12T12:32:57.254Z,5.32
2023-05-12T12:35:24.686Z,5.47
2023-05-12T12:37:52.970Z,6.35
2023-05-12T12:40:20.293Z,5.60
2023-05-12T12:42:48.360Z,4.32
2023-05-12T12:45:16.190Z,4.93
2023-05-12T12:47:44.049Z,4.45
2023-05-12T12:50:11.471Z,5.03
2023-05-12T12:52:38.780Z,3.75
2023-05-12T12:55:07.271Z,3.88
2023-05-12T12:57:34.927Z,4.43
2023-05-12T13:00:03.770Z,3.70
2023-05-12T13:02:37.418Z,5.25
2023-05-12T13:05:07.187Z,4.50
2023-05-12T13:07:34.703Z,5.10
2023-05-12T13:10:02.381Z,6.05
2023-05-12T13:12:33.244Z,4.70
2023-05-12T13:15:00.861Z,4.28
2023-05-12T13:17:28.579Z,4.32
2023-05-12T13:19:55.908Z,5.25
2023-05-12T13:22:23.019Z,5.97
2023-05-12T13:24:50.048Z,6.03
2023-05-12T13:27:17.114Z,6.20
2023-05-12T13:29:47.391Z,5.15
2023-05-12T13:32:16.205Z,6.35
2023-05-12T13:34:43.330Z,4.28
2023-05-12T13:37:10.674Z,7.93
2023-05-12T13:39:37.711Z,4.35
2023-05-12T13:42:05.072Z,6.70
2023-05-12T13:44:32.096Z,4.65
2023-05-12T13:46:59.228Z,6.43
2023-05-12T13:49:26.328Z,5.53
2023-05-12T13:51:53.306Z,5.55
2023-05-12T13:54:20.245Z,7.28
2023-05-12T13:56:47.363Z,5.93
2023-05-12T13:59:14.384Z,5.45
2023-05-12T14:01:41.745Z,5.15
2023-05-12T14:04:08.752Z,5.50
2023-05-12T14:06:35.821Z,5.50
2023-05-12T14:09:05.458Z,5.07
2023-05-12T14:11:33.492Z,6.30
2023-05-12T14:14:01.293Z,6.80
2023-05-12T14:16:28.518Z,5.00
2023-05-12T14:18:55.967Z,5.38
2023-05-12T14:21:23.066Z,7.50
2023-05-12T14:23:51.324Z,7.57
2023-05-12T14:26:19.486Z,8.32
2023-05-12T14:28:46.665Z,5.63
2023-05-12T14:31:13.848Z,6.40
2023-05-12T14:33:41.137Z,6.45
2023-05-12T14:36:09.035Z,5.00
2023-05-12T14:38:36.638Z,5.35
2023-05-12T14:41:04.127Z,7.15
2023-05-12T14:43:31.180Z,6.20
2023-05-12T14:45:58.284Z,6.03
2023-05-12T14:48:28.026Z,4.40
2023-05-12T14:50:56.766Z,4.30
2023-05-12T14:53:24.392Z,6.32
2023-05-12T14:55:51.719Z,4.32
2023-05-12T14:58:19.346Z,7.05
2023-05-12T15:00:47.592Z,5.25
2023-05-12T15:03:14.849Z,5.82
2023-05-12T15:06:01.539Z,7.38
2023-05-12T15:08:29.490Z,5.68
2023-05-12T15:10:56.568Z,6.65
2023-05-12T15:13:23.703Z,5.60
2023-05-12T15:15:52.971Z,5.13
2023-05-12T15:18:22.396Z,6.60
2023-05-12T15:20:49.501Z,7.45
2023-05-12T15:23:16.495Z,4.82
2023-05-12T15:25:43.527Z,5.57
2023-05-12T15:28:10.610Z,5.10
2023-05-12T15:30:37.710Z,4.10
2023-05-12T15:33:05.103Z,5.88
2023-05-12T15:35:32.832Z,6.85
2023-05-12T15:38:00.369Z,5.65
2023-05-12T15:40:27.543Z,6.10
2023-05-12T15:42:54.714Z,6.32
2023-05-12T15:45:22.017Z,6.22
2023-05-12T15:47:49.246Z,7.13
2023-05-12T15:50:19.928Z,5.78
2023-05-12T15:52:47.567Z,6.28
2023-05-12T15:55:15.231Z,4.85
2023-05-12T15:57:42.281Z,5.00
2023-05-12T16:00:09.737Z,5.68
2023-05-12T16:02:45.587Z,4.82
2023-05-12T16:05:12.688Z,5.55
2023-05-12T16:07:39.933Z,5.75
2023-05-12T16:10:07.405Z,6.47
2023-05-12T16:12:34.609Z,10.30
2023-05-12T16:15:02.248Z,7.28
2023-05-12T16:17:34.289Z,3.90
2023-05-12T16:20:02.141Z,5.35
2023-05-12T16:22:31.990Z,4.43
2023-05-12T16:24:59.238Z,6.88
2023-05-12T16:27:26.977Z,6.43
2023-05-12T16:29:54.068Z,4.40
2023-05-12T16:32:21.161Z,4.22
2023-05-12T16:34:48.370Z,5.25
2023-05-12T16:37:15.386Z,5.65
2023-05-12T16:39:42.786Z,5.40
2023-05-12T16:42:09.929Z,3.58
2023-05-12T16:44:36.981Z,6.03
2023-05-12T16:47:04.402Z,5.63
2023-05-12T16:49:31.538Z,4.63
2023-05-12T16:51:58.524Z,4.57
2023-05-12T16:54:25.637Z,4.70
2023-05-12T16:59:20.205Z,6.20
2023-05-12T17:01:47.313Z,6.63
2023-05-12T17:04:15.566Z,5.88
2023-05-12T17:06:43.370Z,4.32
2023-05-12T17:09:10.371Z,7.70
2023-05-12T17:11:37.370Z,6.10
2023-05-12T17:14:05.000Z,4.30
2023-05-12T17:16:32.200Z,6.45
2023-05-12T17:21:29.304Z,7.50
2023-05-12T17:23:57.333Z,6.07
2023-05-12T17:26:27.703Z,5.57
2023-05-12T17:28:55.633Z,7.38
2023-05-12T17:31:22.946Z,7.38
2023-05-12T17:33:50.075Z,8.50
2023-05-12T17:36:18.738Z,7.38
2023-05-12T17:38:46.384Z,6.55
2023-05-12T17:41:13.744Z,5.93
2023-05-12T17:43:41.522Z,8.95
2023-05-12T17:46:09.264Z,7.72
2023-05-12T17:48:38.498Z,8.80
2023-05-12T17:51:06.465Z,9.98
2023-05-12T17:53:34.200Z,6.15
2023-05-12T17:56:01.660Z,8.75
2023-05-12T17:58:28.931Z,13.88
2023-05-12T18:00:56.312Z,12.43
2023-05-12T18:03:23.975Z,11.20
2023-05-12T18:05:53.382Z,11.57
2023-05-12T18:08:21.819Z,10.85
2023-05-12T18:10:49.105Z,13.23
2023-05-12T18:13:16.268Z,12.40
2023-05-12T18:15:43.569Z,9.35
2023-05-12T18:18:11.052Z,12.18
2023-05-12T18:20:38.582Z,11.13
2023-05-12T18:23:05.935Z,9.52
2023-05-12T18:25:33.266Z,8.95
2023-05-12T18:28:00.372Z,12.73
2023-05-12T18:30:27.562Z,7.88
2023-05-12T18:32:54.791Z,9.93
2023-05-12T18:35:22.223Z,12.63
2023-05-12T18:37:49.647Z,33.03
2023-05-12T18:40:17.031Z,19.55
2023-05-12T18:42:44.225Z,13.05
2023-05-12T18:45:12.182Z,12.80
2023-05-12T18:47:39.806Z,10.75
2023-05-12T18:50:07.991Z,9.38
2023-05-12T18:52:35.703Z,11.13
2023-05-12T18:55:03.142Z,7.55
2023-05-12T18:57:33.141Z,9.77
2023-05-12T19:00:00.642Z,11.45
2023-05-12T19:02:28.033Z,8.38
2023-05-12T19:04:55.250Z,12.48
2023-05-12T19:07:22.556Z,8.73
2023-05-12T19:09:49.685Z,10.23
2023-05-12T19:12:16.826Z,10.05
2023-05-12T19:14:44.652Z,8.30
2023-05-12T19:17:11.747Z,7.93
2023-05-12T19:19:38.848Z,9.32
2023-05-12T19:22:05.952Z,8.82
2023-05-12T19:24:34.553Z,10.65
2023-05-12T19:27:01.836Z,22.75
2023-05-12T19:29:28.998Z,22.88
2023-05-12T19:31:56.266Z,17.02
2023-05-12T19:34:24.005Z,14.38
2023-05-12T19:36:53.022Z,14.70
2023-05-12T19:39:20.143Z,19.30
2023-05-12T19:41:47.196Z,19.52
2023-05-12T19:44:14.231Z,21.65
2023-05-12T19:46:41.467Z,16.90
2023-05-12T19:49:08.667Z,16.02
2023-05-12T19:51:35.742Z,18.65
2023-05-12T19:54:04.920Z,24.85
2023-05-12T19:56:32.988Z,27.63
2023-05-12T19:59:00.209Z,17.90
2023-05-12T20:01:27.592Z,18.55
2023-05-12T20:03:54.763Z,18.20
2023-05-12T20:06:22.569Z,18.95
2023-05-12T20:08:49.592Z,18.33
2023-05-12T20:11:16.596Z,16.23
2023-05-12T20:13:43.591Z,22.00
2023-05-12T20:16:10.818Z,17.80
2023-05-12T20:18:37.959Z,18.38
2023-05-12T20:21:05.058Z,19.88
2023-05-12T20:23:32.262Z,18.63
2023-05-12T20:25:59.934Z,19.80
2023-05-12T20:28:28.342Z,25.55
2023-05-12T20:30:55.517Z,23.20
2023-05-12T20:33:22.675Z,34.95
2023-05-12T20:35:49.725Z,31.20
2023-05-12T20:38:16.881Z,35.47
2023-05-12T20:40:43.920Z,34.33
2023-05-12T20:43:13.613Z,34.92
2023-05-12T20:45:41.470Z,28.83
2023-05-12T20:48:09.346Z,22.52
2023-05-12T20:50:36.466Z,22.85
2023-05-12T20:53:04.674Z,22.77
2023-05-12T20:55:35.461Z,27.45
2023-05-12T20:58:02.536Z,18.42
2023-05-12T21:00:29.593Z,20.33
2023-05-12T21:02:58.182Z,25.75
2023-05-12T21:05:25.762Z,21.85
2023-05-12T21:07:52.919Z,17.13
2023-05-12T21:10:20.556Z,17.80
2023-05-12T21:12:48.678Z,16.00
2023-05-12T21:15:15.905Z,19.88
2023-05-12T21:17:42.968Z,19.52
2023-05-12T21:20:11.966Z,28.67
2023-05-12T21:22:40.767Z,18.63
2023-05-12T21:25:08.520Z,17.08
2023-05-12T21:27:40.560Z,18.33
2023-05-12T21:30:09.524Z,17.95
2023-05-12T21:32:36.846Z,24.55
2023-05-12T21:35:04.996Z,20.38
2023-05-12T21:37:33.131Z,18.63
2023-05-12T21:40:00.218Z,20.05
2023-05-12T21:42:27.409Z,23.60
2023-05-12T21:44:54.497Z,29.42
2023-05-12T21:47:21.533Z,20.17
2023-05-12T21:49:53.651Z,25.67
2023-05-12T21:52:21.105Z,23.50
2023-05-12T21:54:48.151Z,27.75
2023-05-12T21:57:15.301Z,21.83
2023-05-12T21:59:42.318Z,31.48
2023-05-12T22:02:09.337Z,32.70
2023-05-12T22:04:36.515Z,25.55
2023-05-12T22:07:03.600Z,32.22
2023-05-12T22:09:31.272Z,24.95
2023-05-12T22:11:58.529Z,22.52
2023-05-12T22:14:25.559Z,24.02
2023-05-12T22:16:52.608Z,22.88
2023-05-12T22:19:19.740Z,19.60
2023-05-12T22:21:47.029Z,24.00
2023-05-12T22:24:14.357Z,21.98
2023-05-12T22:26:41.496Z,18.17
2023-05-12T22:29:08.469Z,19.15
2023-05-12T22:31:35.957Z,19.50
2023-05-12T22:34:02.946Z,16.98
2023-05-12T22:36:30.380Z,15.77
2023-05-12T22:38:57.384Z,18.85
2023-05-12T22:41:24.462Z,18.08
2023-05-12T22:43:51.647Z,14.10
2023-05-12T22:46:18.718Z,15.52
2023-05-12T22:48:45.777Z,15.55
2023-05-12T22:51:12.878Z,13.52
2023-05-12T22:53:43.006Z,14.95
2023-05-12T22:56:10.017Z,13.70
2023-05-12T22:58:37.308Z,16.92
2023-05-12T23:01:04.558Z,13.05
2023-05-12T23:03:32.960Z,14.00
2023-05-12T23:05:59.989Z,17.15
2023-05-12T23:08:27.015Z,16.05
2023-05-12T23:10:54.231Z,14.20
2023-05-12T23:13:21.249Z,14.95
2023-05-12T23:15:48.315Z,13.60
2023-05-12T23:18:15.651Z,14.18
2023-05-12T23:20:43.058Z,14.00
2023-05-12T23:23:10.110Z,16.13
2023-05-12T23:25:38.840Z,16.55
2023-05-12T23:28:06.664Z,14.45
2023-05-12T23:30:33.771Z,15.73
2023-05-12T23:33:01.041Z,16.92
2023-05-12T23:35:28.086Z,20.92
2023-05-12T23:37:55.108Z,15.68
2023-05-12T23:40:22.389Z,18.02
2023-05-12T23:42:49.762Z,18.00
2023-05-12T23:45:16.838Z,14.40
2023-05-12T23:47:43.841Z,23.05
2023-05-12T23:50:11.492Z,15.18
2023-05-12T23:52:38.508Z,18.40
2023-05-12T23:55:06.150Z,17.58
2023-05-12T23:57:33.150Z,15.68
